Time;durP1;ratioP1;P1;durP2;ratioP2;P2;SDS_P1;SDS_P2;PMS_P1;PMS_P2;Temp;Humidity;BMP_temperature;BMP_pressure;BME280_temperature;BME280_humidity;BME280_pressure;Samples;Min_cycle;Max_cycle;Signal;HPM_P1;HPM_P2
2023/01/12 00:01:19;;;;;;;9.87;1.47;;;;;;;7.34;81.42;99090.72;5040258;28;20303;-60
2023/01/12 00:03:46;;;;;;;7.93;1.67;;;;;;;7.29;81.49;99090.25;5041439;28;20277;-59
2023/01/12 00:06:13;;;;;;;8.23;1.30;;;;;;;7.20;82.30;99077.97;5041921;28;20299;-59
2023/01/12 00:08:40;;;;;;;5.60;1.43;;;;;;;7.18;81.95;99079.84;5041005;28;20720;-58
2023/01/12 00:11:07;;;;;;;6.73;1.43;;;;;;;7.21;81.60;99087.41;5039984;28;20234;-59
2023/01/12 00:13:34;;;;;;;8.20;1.13;;;;;;;7.22;81.29;99079.50;5041773;28;20234;-59
2023/01/12 00:18:48;;;;;;;13.20;1.50;;;;;;;7.35;80.86;99081.16;5041378;28;21246;-59
2023/01/12 00:21:16;;;;;;;9.93;1.40;;;;;;;7.41;80.13;99075.50;5034215;28;20710;-59
2023/01/12 00:23:43;;;;;;;11.73;3.03;;;;;;;7.37;80.11;99066.28;5037401;28;20279;-59
2023/01/12 00:26:10;;;;;;;6.30;1.60;;;;;;;7.39;79.66;99065.22;5036153;28;20254;-60
2023/01/12 00:28:37;;;;;;;10.73;1.50;;;;;;;7.35;79.29;99063.00;5043834;28;20242;-60
2023/01/12 00:31:07;;;;;;;8.77;1.30;;;;;;;7.24;81.21;99056.84;5033289;28;20733;-61
2023/01/12 00:33:34;;;;;;;8.77;1.60;;;;;;;7.14;81.79;99068.91;5041743;28;20267;-61
2023/01/12 00:36:02;;;;;;;9.13;1.43;;;;;;;7.16;81.61;99067.00;5040505;28;20233;-60
2023/01/12 00:38:29;;;;;;;4.87;1.30;;;;;;;7.23;80.43;99064.75;5039320;28;20251;-61
2023/01/12 00:40:56;;;;;;;10.03;1.67;;;;;;;7.23;81.46;99075.13;5039015;28;21473;-61
2023/01/12 00:46:05;;;;;;;7.73;1.37;;;;;;;7.29;80.95;99060.88;5010510;28;20236;-60
2023/01/12 00:48:31;;;;;;;6.40;1.20;;;;;;;7.35;79.69;99056.00;5037677;28;20250;-60
2023/01/12 00:50:58;;;;;;;5.90;1.17;;;;;;;7.35;79.29;99071.59;5042207;28;20302;-62
2023/01/12 00:53:25;;;;;;;12.70;2.00;;;;;;;7.34;79.71;99061.34;5036853;28;20254;-62
2023/01/12 00:55:51;;;;;;;10.40;1.57;;;;;;;7.37;79.48;99050.72;5038393;28;20638;-61
2023/01/12 00:58:18;;;;;;;10.17;1.40;;;;;;;7.39;79.33;99059.22;5039454;28;20349;-60
2023/01/12 01:00:44;;;;;;;6.67;1.30;;;;;;;7.50;78.36;99048.78;5041218;28;20254;-60
2023/01/12 01:03:12;;;;;;;7.97;1.40;;;;;;;7.49;77.42;99047.13;5033144;28;20255;-60
2023/01/12 01:05:39;;;;;;;3.97;0.80;;;;;;;7.50;77.61;99038.38;5042077;28;20239;-60
2023/01/12 01:08:06;;;;;;;11.67;1.53;;;;;;;7.53;77.61;99050.31;5036595;28;20710;-61
2023/01/12 01:10:32;;;;;;;9.47;1.20;;;;;;;7.62;75.90;99051.34;5041252;28;20231;-60
2023/01/12 01:12:59;;;;;;;5.50;1.47;;;;;;;7.58;76.82;99043.00;5038153;28;20320;-61
2023/01/12 01:15:25;;;;;;;8.50;1.47;;;;;;;7.61;76.01;99062.69;5035809;28;20230;-60
2023/01/12 01:17:52;;;;;;;9.17;1.47;;;;;;;7.65;76.72;99062.34;5043438;28;20242;-60
2023/01/12 01:20:20;;;;;;;16.13;2.80;;;;;;;7.64;76.75;99067.66;5038227;28;20273;-61
2023/01/12 01:22:47;;;;;;;10.30;1.77;;;;;;;7.62;77.11;99083.38;5042234;28;20246;-59
2023/01/12 01:25:13;;;;;;;9.27;1.17;;;;;;;7.63;76.59;99066.00;5036996;28;20238;-61
2023/01/12 01:27:40;;;;;;;8.30;1.40;;;;;;;7.70;76.69;99069.78;5041667;28;20227;-60
2023/01/12 01:30:08;;;;;;;8.03;1.17;;;;;;;7.71;76.82;99070.59;5036102;28;20239;-60
2023/01/12 01:32:34;;;;;;;6.07;1.67;;;;;;;7.76;76.44;99077.06;5039672;28;20652;-61
2023/01/12 01:35:01;;;;;;;10.23;1.83;;;;;;;7.74;76.60;99075.56;5038853;28;20652;-62
2023/01/12 01:37:29;;;;;;;7.97;1.30;;;;;;;7.77;75.63;99067.53;5039980;28;20297;-60
2023/01/12 01:39:56;;;;;;;5.23;1.10;;;;;;;7.74;76.21;99060.78;5040183;28;20226;-61
2023/01/12 01:42:27;;;;;;;8.70;1.50;;;;;;;7.78;75.97;99064.78;5032578;28;20235;-61
2023/01/12 01:44:56;;;;;;;6.83;1.70;;;;;;;7.77;76.05;99049.34;5040708;28;20311;-60
2023/01/12 01:47:36;;;;;;;9.47;1.30;;;;;;;7.67;76.81;99067.41;5035672;28;20245;-60
2023/01/12 01:50:10;;;;;;;12.43;1.63;;;;;;;7.69;76.16;99062.91;5039649;28;20238;-60
2023/01/12 01:52:42;;;;;;;8.17;1.73;;;;;;;7.66;75.65;99060.56;5040948;28;21878;-61
2023/01/12 01:55:13;;;;;;;8.70;1.43;;;;;;;7.64;75.63;99073.69;5036200;28;20292;-60
2023/01/12 01:57:43;;;;;;;5.67;1.67;;;;;;;7.61;76.94;99062.69;5039963;28;20320;-60
2023/01/12 02:00:12;;;;;;;6.87;1.40;;;;;;;7.53;77.37;99066.72;5035827;28;20321;-61
2023/01/12 02:02:40;;;;;;;8.20;1.70;;;;;;;7.51;78.50;99065.19;5036293;28;20238;-60
2023/01/12 02:05:08;;;;;;;9.20;1.50;;;;;;;7.53;77.92;99065.91;5037879;28;20242;-61
2023/01/12 02:07:35;;;;;;;8.50;1.67;;;;;;;7.48;77.96;99086.22;5032419;28;20243;-60
2023/01/12 02:10:04;;;;;;;9.27;1.57;;;;;;;7.50;78.44;99068.75;5039664;28;20236;-60
2023/01/12 02:18:12;;;;;;;8.20;1.70;;;;;;;7.58;79.74;99021.38;5041074;28;20238;-61
2023/01/12 02:21:09;;;;;;;8.93;2.03;;;;;;;7.54;79.58;99031.19;5039357;28;20654;-60
2023/01/12 02:23:58;;;;;;;12.40;1.70;;;;;;;7.56;79.06;99028.47;5037530;28;20243;-60
2023/01/12 02:27:03;;;;;;;8.37;1.60;;;;;;;7.65;77.48;99018.19;5037824;28;20234;-60
2023/01/12 02:29:50;;;;;;;7.60;1.40;;;;;;;7.59;79.60;99020.44;5033981;28;20296;-61
2023/01/12 02:32:26;;;;;;;10.13;1.70;;;;;;;7.53;79.25;98999.19;5034091;28;20222;-61
2023/01/12 02:35:03;;;;;;;12.13;1.80;;;;;;;7.51;80.05;98997.66;5038886;28;20296;-61
2023/01/12 02:37:35;;;;;;;9.43;1.83;;;;;;;7.53;79.23;99034.75;5034897;28;20242;-61
2023/01/12 02:40:07;;;;;;;11.13;1.77;;;;;;;7.51;79.83;99042.63;5039436;28;20230;-60
2023/01/12 02:42:42;;;;;;;7.43;1.57;;;;;;;7.49;79.88;99048.91;5037126;28;20300;-61
2023/01/12 02:45:32;;;;;;;10.00;2.27;;;;;;;7.46;80.27;99025.78;5036176;28;20226;-60
2023/01/12 02:48:07;;;;;;;3.80;1.03;;;;;;;7.46;80.12;99028.38;5034534;28;20262;-61
2023/01/12 02:50:39;;;;;;;16.83;1.33;;;;;;;7.44;80.55;99022.47;5040983;28;20234;-61
2023/01/12 02:53:11;;;;;;;12.23;1.95;;;;;;;7.46;80.59;99018.78;5037889;28;20482;-61
2023/01/12 02:55:39;;;;;;;7.47;1.20;;;;;;;7.46;81.66;99023.19;5041550;28;20305;-61
2023/01/12 02:58:09;;;;;;;12.87;1.90;;;;;;;7.48;80.56;99027.28;5028567;28;20607;-61
2023/01/12 03:00:38;;;;;;;10.50;1.70;;;;;;;7.53;80.06;99032.94;5038592;28;20231;-61
2023/01/12 03:03:07;;;;;;;12.87;2.23;;;;;;;7.61;79.96;99037.56;5042757;28;20231;-59
2023/01/12 03:05:33;;;;;;;7.30;1.40;;;;;;;7.66;79.81;99037.19;5052318;28;20662;-61
2023/01/12 03:08:03;;;;;;;11.10;1.47;;;;;;;7.63;80.37;99040.03;5043530;28;20280;-58
2023/01/12 03:10:58;;;;;;;5.03;1.07;;;;;;;7.63;81.32;99022.66;5044492;28;20224;-60
2023/01/12 03:13:28;;;;;;;7.40;1.67;;;;;;;7.70;79.16;99010.00;5041339;28;20243;-59
2023/01/12 03:15:57;;;;;;;9.03;1.63;;;;;;;7.66;80.58;99008.59;5050381;28;20277;-59
2023/01/12 03:18:33;;;;;;;9.00;1.60;;;;;;;7.69;81.11;98997.97;5041774;28;20239;-60
2023/01/12 03:21:05;;;;;;;12.27;1.80;;;;;;;7.70;80.21;99004.00;5053973;28;20230;-60
2023/01/12 03:23:37;;;;;;;8.90;1.40;;;;;;;7.70;79.81;99015.19;5047842;28;20227;-60
2023/01/12 03:26:07;;;;;;;9.77;1.57;;;;;;;7.68;79.35;99022.28;5046632;28;20791;-60
2023/01/12 03:28:36;;;;;;;10.73;2.07;;;;;;;7.68;80.96;99022.28;5049043;28;20243;-61
2023/01/12 03:31:08;;;;;;;7.67;1.40;;;;;;;7.66;80.07;99021.59;5049713;28;20711;-60
2023/01/12 03:33:37;;;;;;;11.10;1.50;;;;;;;7.62;81.22;99023.63;5048681;28;20717;-60
2023/01/12 03:36:13;;;;;;;11.63;1.77;;;;;;;7.61;80.87;99019.38;5050349;28;20283;-60
2023/01/12 03:38:47;;;;;;;16.80;2.03;;;;;;;7.59;81.26;99008.28;5046501;28;20238;-60
2023/01/12 03:41:26;;;;;;;8.83;1.60;;;;;;;7.65;81.34;99004.34;5047340;28;20700;-60
2023/01/12 03:43:57;;;;;;;8.33;1.57;;;;;;;7.63;81.67;99006.25;5050516;28;20254;-60
2023/01/12 03:46:28;;;;;;;7.77;1.30;;;;;;;7.62;80.77;98989.84;5044022;28;20698;-61
2023/01/12 03:49:02;;;;;;;6.37;1.67;;;;;;;7.65;81.34;99017.34;5043905;28;20238;-61
2023/01/12 03:51:32;;;;;;;8.40;1.33;;;;;;;7.65;80.86;98999.16;5046261;28;20947;-61
2023/01/12 03:54:00;;;;;;;12.67;1.70;;;;;;;7.63;80.35;98988.06;5045754;28;20236;-61
2023/01/12 03:56:31;;;;;;;8.87;1.50;;;;;;;7.64;80.67;98993.16;5044917;28;20234;-61
2023/01/12 03:58:58;;;;;;;6.87;1.60;;;;;;;7.64;80.29;98976.72;5051156;28;20321;-61
2023/01/12 04:01:24;;;;;;;7.47;1.43;;;;;;;7.65;79.76;98989.59;5046296;28;20242;-61
2023/01/12 04:03:51;;;;;;;12.60;1.60;;;;;;;7.65;79.02;98987.00;5049772;28;20637;-61
2023/01/12 04:06:19;;;;;;;6.40;1.50;;;;;;;7.62;78.97;98981.22;5042371;28;20842;-61
2023/01/12 04:08:45;;;;;;;6.87;1.10;;;;;;;7.63;78.92;98946.47;5052144;28;20316;-61
2023/01/12 04:13:56;;;;;;;8.90;1.63;;;;;;;7.69;78.78;98966.78;5046297;28;20232;-61
2023/01/12 04:16:23;;;;;;;5.07;1.13;;;;;;;7.65;77.41;98949.78;5045865;28;20380;-60
2023/01/12 04:18:49;;;;;;;8.17;1.40;;;;;;;7.61;78.72;98943.19;5053625;28;20232;-61
2023/01/12 04:24:01;;;;;;;9.23;1.50;;;;;;;7.58;77.72;98956.41;5047401;28;20226;-61
2023/01/12 04:26:28;;;;;;;10.97;2.00;;;;;;;7.65;75.69;98952.38;5037916;28;20353;-61
2023/01/12 04:28:54;;;;;;;12.40;1.67;;;;;;;7.65;76.49;98965.38;5045193;28;20227;-60
2023/01/12 04:31:21;;;;;;;7.77;1.33;;;;;;;7.69;76.03;98951.19;5262923;22;20222;-57
2023/01/12 04:33:48;;;;;;;12.90;1.67;;;;;;;7.76;74.95;98941.13;5043095;28;20250;-55
2023/01/12 04:36:15;;;;;;;10.73;1.43;;;;;;;7.76;75.95;98946.34;5040633;28;20231;-55
2023/01/12 04:38:42;;;;;;;9.03;1.43;;;;;;;7.80;75.20;98958.13;5043842;28;20322;-55
2023/01/12 04:41:10;;;;;;;7.70;1.73;;;;;;;7.83;75.04;98953.50;5041619;28;20304;-55
2023/01/12 04:43:36;;;;;;;6.40;1.50;;;;;;;7.84;74.98;98962.13;5044694;28;20698;-55
2023/01/12 04:46:06;;;;;;;9.30;1.47;;;;;;;7.85;75.62;98955.16;5044062;28;20322;-55
2023/01/12 04:48:33;;;;;;;11.37;2.10;;;;;;;7.90;75.10;98963.38;5042377;28;20336;-56
2023/01/12 04:51:01;;;;;;;7.10;1.33;;;;;;;7.92;74.72;98956.28;5044808;28;20239;-57
2023/01/12 04:53:28;;;;;;;8.00;1.30;;;;;;;7.95;73.73;98969.03;5042165;28;20308;-53
2023/01/12 04:55:54;;;;;;;10.00;1.23;;;;;;;7.92;75.79;98957.13;5045040;28;20224;-53
2023/01/12 04:58:22;;;;;;;7.77;1.50;;;;;;;7.92;74.55;98962.34;5040678;28;20212;-53
2023/01/12 05:00:49;;;;;;;8.70;1.37;;;;;;;7.93;73.79;98976.13;5043043;28;20361;-53
2023/01/12 05:03:16;;;;;;;8.77;1.60;;;;;;;7.92;73.68;98974.50;5041154;28;20386;-53
2023/01/12 05:05:43;;;;;;;10.47;1.80;;;;;;;7.95;76.53;98974.25;5043950;28;20238;-53
2023/01/12 05:10:55;;;;;;;7.30;1.77;;;;;;;7.84;78.27;98951.72;5042302;28;20243;-54
2023/01/12 05:13:24;;;;;;;8.20;1.40;;;;;;;7.76;78.29;98959.34;5041219;28;20218;-53
2023/01/12 05:15:50;;;;;;;12.37;1.40;;;;;;;7.70;79.80;98983.22;5043050;28;20293;-54
2023/01/12 05:18:17;;;;;;;11.10;1.40;;;;;;;7.64;80.58;98954.19;5040522;28;20251;-56
2023/01/12 05:20:43;;;;;;;9.70;1.17;;;;;;;7.64;79.46;98950.72;5044048;28;20231;-56
2023/01/12 05:23:10;;;;;;;7.27;1.73;;;;;;;7.64;80.05;98953.34;5040798;28;20805;-54
2023/01/12 05:25:36;;;;;;;6.67;1.30;;;;;;;7.61;79.80;98951.81;5044237;28;20711;-54
2023/01/12 05:28:03;;;;;;;7.40;1.03;;;;;;;7.61;80.04;98944.03;5043720;28;20839;-56
2023/01/12 05:30:31;;;;;;;10.77;1.30;;;;;;;7.62;79.85;98937.88;5036156;28;20243;-56
2023/01/12 05:32:58;;;;;;;6.33;1.30;;;;;;;7.60;79.43;98931.97;5042214;28;20231;-54
2023/01/12 05:35:24;;;;;;;13.57;2.03;;;;;;;7.67;78.64;98938.34;5040390;28;20270;-52
2023/01/12 05:37:51;;;;;;;10.10;1.30;;;;;;;7.74;77.89;98928.25;5043749;28;20227;-52
2023/01/12 05:40:17;;;;;;;9.53;1.50;;;;;;;7.73;79.15;98915.41;5040512;28;20216;-54
2023/01/12 05:45:28;;;;;;;5.47;1.37;;;;;;;7.76;78.07;98910.75;5040401;28;20235;-54
2023/01/12 05:48:00;;;;;;;9.63;2.13;;;;;;;7.77;79.44;98909.81;5043920;28;20230;-52
2023/01/12 05:50:28;;;;;;;12.17;1.60;;;;;;;7.79;78.09;98907.09;5040860;28;20235;-53
2023/01/12 05:53:07;;;;;;;10.07;1.50;;;;;;;7.73;79.56;98908.41;5040742;28;20230;-56
2023/01/12 05:55:33;;;;;;;12.80;1.60;;;;;;;7.74;78.99;98912.66;5043195;28;20293;-53
2023/01/12 05:58:00;;;;;;;11.50;1.50;;;;;;;7.79;78.08;98900.13;5043942;28;20231;-54
2023/01/12 06:00:27;;;;;;;7.33;1.37;;;;;;;7.76;78.90;98899.56;5041111;28;20223;-56
2023/01/12 06:02:53;;;;;;;10.77;1.47;;;;;;;7.77;79.04;98890.81;5043997;28;20288;-57
2023/01/12 06:05:21;;;;;;;12.73;1.57;;;;;;;7.78;79.85;98911.47;5040037;28;20235;-55
2023/01/12 06:07:48;;;;;;;12.27;2.00;;;;;;;7.78;79.22;98903.66;5044099;28;20238;-53
2023/01/12 06:10:14;;;;;;;9.30;1.37;;;;;;;7.80;79.10;98901.75;5041088;28;20235;-54
2023/01/12 06:15:25;;;;;;;7.30;1.40;;;;;;;7.81;79.31;98881.81;5038293;28;20251;-54
2023/01/12 06:17:52;;;;;;;9.20;1.53;;;;;;;7.80;79.59;98888.78;5043858;28;20235;-54
2023/01/12 06:20:20;;;;;;;5.17;1.07;;;;;;;7.85;78.62;98882.38;5040733;28;20602;-53
2023/01/12 06:22:47;;;;;;;15.07;4.80;;;;;;;7.83;79.27;98874.72;5045438;28;20234;-53
2023/01/12 06:25:13;;;;;;;15.17;3.33;;;;;;;7.87;79.16;98862.28;5043369;28;20272;-54
2023/01/12 06:27:40;;;;;;;53.40;18.97;;;;;;;7.87;78.75;98859.69;5048079;28;20257;-55
2023/01/12 06:30:09;;;;;;;28.07;10.00;;;;;;;7.88;78.79;98862.16;5044478;28;20227;-53
2023/01/12 06:32:37;;;;;;;15.97;4.97;;;;;;;7.94;77.27;98842.63;5046315;28;20595;-53
2023/01/12 06:35:05;;;;;;;37.83;15.50;;;;;;;7.93;78.19;98866.97;5045355;28;20245;-55
2023/01/12 06:37:33;;;;;;;8.40;2.63;;;;;;;7.96;77.90;98861.50;5045290;28;20728;-54
2023/01/12 06:39:59;;;;;;;10.03;1.30;;;;;;;7.96;77.11;98849.31;5047816;28;20223;-55
2023/01/12 06:42:29;;;;;;;6.80;1.20;;;;;;;8.03;78.10;98862.66;5041224;28;20312;-55
2023/01/12 06:44:55;;;;;;;8.37;1.43;;;;;;;7.99;77.00;98861.25;5045932;28;20230;-55
2023/01/12 06:47:22;;;;;;;3.37;0.83;;;;;;;8.03;77.61;98841.00;5042132;28;20220;-54
2023/01/12 06:49:50;;;;;;;5.40;1.13;;;;;;;8.06;75.72;98845.94;5046698;28;20702;-54
2023/01/12 06:52:18;;;;;;;10.48;2.33;;;;;;;8.05;76.97;98837.34;5042774;28;20994;-54
2023/01/12 06:54:46;;;;;;;5.13;1.37;;;;;;;8.03;76.03;98846.22;5045449;28;20228;-55
2023/01/12 06:57:13;;;;;;;8.03;1.13;;;;;;;8.03;77.60;98833.22;5042229;28;20231;-54
2023/01/12 06:59:41;;;;;;;4.97;1.07;;;;;;;7.98;76.37;98831.81;5047068;28;20263;-54
2023/01/12 07:02:11;;;;;;;8.80;1.40;;;;;;;8.04;77.53;98834.88;5043304;28;20454;-53
2023/01/12 07:04:38;;;;;;;10.43;1.00;;;;;;;8.05;77.37;98833.91;5047049;28;20242;-52
2023/01/12 07:07:05;;;;;;;3.53;1.60;;;;;;;8.04;76.44;98845.25;5044029;28;20227;-54
2023/01/12 07:09:32;;;;;;;7.67;0.90;;;;;;;8.09;77.05;98838.75;5047495;28;20227;-53
2023/01/12 07:11:59;;;;;;;10.90;2.10;;;;;;;8.09;76.12;98833.53;5047048;28;20236;-54
2023/01/12 07:14:26;;;;;;;6.67;1.07;;;;;;;8.11;76.86;98844.63;5044376;28;20226;-52
2023/01/12 07:16:53;;;;;;;6.90;1.20;;;;;;;8.07;77.78;98845.84;5047282;28;20560;-52
2023/01/12 07:19:19;;;;;;;5.37;1.20;;;;;;;8.08;76.57;98851.84;5043139;28;20537;-54
2023/01/12 07:21:48;;;;;;;7.37;1.67;;;;;;;8.07;77.42;98871.84;5046578;28;20230;-52
2023/01/12 07:24:14;;;;;;;2.80;0.73;;;;;;;8.12;77.16;98841.06;5043654;28;20281;-54
2023/01/12 07:26:41;;;;;;;7.10;1.40;;;;;;;8.18;76.31;98815.50;5047269;28;20597;-53
2023/01/12 07:29:10;;;;;;;4.97;1.10;;;;;;;8.10;79.11;98823.94;5044173;28;20231;-54
2023/01/12 07:31:37;;;;;;;7.87;1.47;;;;;;;8.06;77.51;98817.34;5046077;28;20230;-53
2023/01/12 07:34:03;;;;;;;5.40;0.90;;;;;;;8.12;77.77;98827.25;5046195;28;20222;-52
2023/01/12 07:36:30;;;;;;;7.00;1.20;;;;;;;8.11;77.99;98833.38;5042294;28;20231;-52
2023/01/12 07:38:56;;;;;;;7.83;1.57;;;;;;;8.11;77.90;98833.38;5047273;28;20227;-54
2023/01/12 07:44:09;;;;;;;6.47;1.50;;;;;;;8.15;77.66;98824.38;5041963;28;20226;-54
2023/01/12 07:46:37;;;;;;;9.03;1.43;;;;;;;8.13;79.50;98837.53;5045697;28;20637;-54
2023/01/12 07:49:03;;;;;;;9.20;1.20;;;;;;;8.16;78.01;98820.81;5046414;28;20239;-54
2023/01/12 07:51:30;;;;;;;9.97;1.00;;;;;;;8.22;77.36;98822.09;5043977;28;20234;-52
2023/01/12 07:53:57;;;;;;;6.53;1.40;;;;;;;8.17;77.95;98838.06;5046157;28;20227;-54
2023/01/12 07:56:23;;;;;;;6.90;1.40;;;;;;;8.22;77.35;98850.69;5043652;28;20390;-54
2023/01/12 07:58:50;;;;;;;8.30;1.20;;;;;;;8.26;76.59;98841.69;5046324;28;20223;-53
2023/01/12 08:01:18;;;;;;;5.17;1.30;;;;;;;8.26;77.04;98862.50;5042928;28;20557;-54
2023/01/12 08:03:45;;;;;;;5.97;1.30;;;;;;;8.24;77.98;98847.00;5046220;28;20308;-53
2023/01/12 08:06:11;;;;;;;7.63;1.20;;;;;;;8.25;77.84;98872.06;5043421;28;20234;-54
2023/01/12 08:08:38;;;;;;;6.60;1.37;;;;;;;8.20;78.77;98861.22;5046593;28;20231;-54
2023/01/12 08:11:06;;;;;;;7.03;1.23;;;;;;;8.18;78.50;98865.72;5046123;28;20242;-53
2023/01/12 08:13:33;;;;;;;12.43;2.13;;;;;;;8.22;77.81;98868.91;5043182;28;20230;-52
2023/01/12 08:16:05;;;;;;;6.77;1.30;;;;;;;8.21;79.36;98875.06;5045801;28;20285;-52
2023/01/12 08:18:37;;;;;;;10.17;1.50;;;;;;;8.18;78.43;98875.31;5041086;28;20235;-54
2023/01/12 08:21:09;;;;;;;11.73;1.90;;;;;;;8.20;77.97;98878.63;5046143;28;20234;-54
2023/01/12 08:23:41;;;;;;;11.13;1.87;;;;;;;8.22;78.87;98848.91;5043309;28;20319;-54
2023/01/12 08:26:14;;;;;;;7.37;1.50;;;;;;;8.20;79.13;98865.63;5043274;28;20242;-53
2023/01/12 08:28:45;;;;;;;8.90;2.10;;;;;;;8.22;79.63;98879.31;5046269;28;20261;-53
2023/01/12 08:31:14;;;;;;;7.83;1.70;;;;;;;8.21;79.80;98888.88;5040748;28;20223;-54
2023/01/12 08:33:43;;;;;;;7.07;2.17;;;;;;;8.18;79.94;98873.53;5043419;28;20236;-54
2023/01/12 08:36:12;;;;;;;10.57;2.27;;;;;;;8.23;79.63;98893.97;5041135;28;20276;-52
2023/01/12 08:38:39;;;;;;;9.97;1.53;;;;;;;8.19;80.63;98890.78;5044241;28;20708;-53
2023/01/12 08:44:02;;;;;;;10.20;1.80;;;;;;;8.18;80.69;98903.91;5043014;28;20227;-53
2023/01/12 08:46:29;;;;;;;9.53;1.00;;;;;;;8.15;81.73;98891.97;5040686;28;20337;-54
2023/01/12 08:48:57;;;;;;;18.50;6.90;;;;;;;8.16;82.14;98908.44;5044361;28;20281;-52
2023/01/12 08:51:24;;;;;;;14.27;1.83;;;;;;;8.16;82.66;98900.63;5042025;28;20646;-53
2023/01/12 08:53:50;;;;;;;12.27;1.70;;;;;;;8.17;82.33;98913.47;5044876;28;20702;-54
2023/01/12 08:56:17;;;;;;;10.77;1.60;;;;;;;8.18;81.56;98899.53;5042109;28;20219;-54
2023/01/12 08:58:44;;;;;;;12.40;4.60;;;;;;;8.20;81.91;98931.44;5045000;28;20639;-54
2023/01/12 09:01:12;;;;;;;9.47;2.77;;;;;;;8.21;81.69;98921.88;5041686;28;20223;-53
2023/01/12 09:03:39;;;;;;;12.23;3.50;;;;;;;8.25;81.64;98936.25;5044919;28;20239;-52
2023/01/12 09:06:12;;;;;;;8.07;1.50;;;;;;;8.27;82.22;98919.56;5042316;28;20224;-52
2023/01/12 09:08:38;;;;;;;5.30;1.30;;;;;;;8.32;81.21;98926.16;5044221;28;20246;-53
2023/01/12 09:11:07;;;;;;;13.43;1.50;;;;;;;8.32;81.65;98902.75;5041069;28;20232;-54
2023/01/12 09:13:34;;;;;;;8.00;1.20;;;;;;;8.39;81.48;98885.66;5044819;28;20227;-52
2023/01/12 09:16:05;;;;;;;6.50;1.00;;;;;;;8.40;81.02;98885.56;5044737;28;20634;-55
2023/01/12 09:18:31;;;;;;;9.17;1.50;;;;;;;8.44;80.14;98922.53;5041857;28;20238;-55
2023/01/12 09:21:03;;;;;;;6.17;1.73;;;;;;;8.46;79.94;98901.59;5043944;28;20235;-52
2023/01/12 09:23:31;;;;;;;8.93;1.93;;;;;;;8.46;79.59;98906.81;5041051;28;20230;-52
2023/01/12 09:26:02;;;;;;;9.50;2.00;;;;;;;8.49;78.89;98896.97;5044267;28;20258;-54
2023/01/12 09:28:28;;;;;;;4.67;1.60;;;;;;;8.56;78.32;98916.31;5042197;28;20252;-53
2023/01/12 09:30:55;;;;;;;10.67;1.43;;;;;;;8.61;77.60;98918.50;5043533;28;20215;-52
2023/01/12 09:33:21;;;;;;;8.50;1.27;;;;;;;8.65;76.28;98919.91;5039922;28;20215;-52
2023/01/12 09:35:48;;;;;;;9.17;1.17;;;;;;;8.74;75.87;98917.47;5043017;28;20239;-53
2023/01/12 09:38:16;;;;;;;5.10;1.20;;;;;;;8.81;76.23;98918.59;5040740;28;20231;-52
2023/01/12 09:40:44;;;;;;;6.30;0.87;;;;;;;8.86;76.26;98927.66;5042879;28;20246;-52
2023/01/12 09:48:44;;;;;;;7.87;1.20;;;;;;;8.80;75.45;98919.53;5040040;28;20224;-54
2023/01/12 09:51:17;;;;;;;8.83;1.23;;;;;;;8.79;75.98;98904.88;5040186;28;20235;-53
2023/01/12 09:53:44;;;;;;;7.87;1.83;;;;;;;8.92;78.98;98907.25;5041417;28;20314;-54
2023/01/12 09:56:18;;;;;;;6.20;0.80;;;;;;;8.93;76.47;98911.50;5039355;28;20243;-55
2023/01/12 09:59:11;;;;;;;5.57;0.97;;;;;;;8.99;76.60;98908.38;5042413;28;20260;-54
2023/01/12 10:01:46;;;;;;;5.10;0.83;;;;;;;9.08;75.20;98904.94;5039661;28;20245;-53
2023/01/12 10:04:14;;;;;;;12.07;1.30;;;;;;;9.14;76.13;98895.78;5038616;28;20625;-55
2023/01/12 10:06:41;;;;;;;6.13;1.40;;;;;;;9.10;75.74;98889.19;5044259;28;20231;-55
2023/01/12 10:09:13;;;;;;;4.73;1.10;;;;;;;9.23;75.21;98894.97;5040831;28;20219;-53
2023/01/12 10:11:47;;;;;;;6.47;1.00;;;;;;;9.22;75.22;98880.31;5041861;28;20231;-54
2023/01/12 10:14:49;;;;;;;6.80;0.90;;;;;;;9.13;74.60;98894.94;5040265;28;20228;-55
2023/01/12 10:17:26;;;;;;;3.40;0.70;;;;;;;9.27;74.74;98883.31;5040328;28;20223;-54
2023/01/12 10:20:02;;;;;;;4.57;1.00;;;;;;;9.30;74.04;98890.03;5043078;28;20239;-53
2023/01/12 10:22:37;;;;;;;2.23;0.90;;;;;;;9.20;75.38;98884.81;5040299;28;20640;-54
2023/01/12 10:25:24;;;;;;;6.57;0.90;;;;;;;9.32;75.17;98892.53;5043204;28;20293;-53
2023/01/12 10:27:55;;;;;;;3.73;0.90;;;;;;;9.41;74.48;98876.06;5039929;28;20673;-53
2023/01/12 10:30:26;;;;;;;4.43;0.80;;;;;;;9.39;73.99;98870.16;5031523;28;20222;-53
2023/01/12 10:32:52;;;;;;;4.83;0.90;;;;;;;9.37;73.68;98885.94;5043498;28;20905;-53
2023/01/12 10:35:21;;;;;;;2.07;0.50;;;;;;;9.42;73.37;98893.34;5040688;28;20220;-54
2023/01/12 10:37:51;;;;;;;4.03;0.73;;;;;;;9.41;74.08;98886.50;5043708;28;20230;-54
2023/01/12 10:40:26;;;;;;;5.90;0.70;;;;;;;9.42;73.53;98878.53;5040718;28;20246;-53
2023/01/12 10:43:21;;;;;;;5.83;0.67;;;;;;;9.24;74.08;98867.97;5043344;28;20292;-55
2023/01/12 10:46:14;;;;;;;3.53;0.77;;;;;;;9.37;74.29;98883.31;5040468;28;20215;-53
2023/01/12 10:48:43;;;;;;;2.80;0.63;;;;;;;9.46;72.57;98858.25;5041013;28;20227;-53
2023/01/12 10:51:20;;;;;;;2.70;0.70;;;;;;;9.30;74.48;98863.97;5040146;28;20258;-55
2023/01/12 10:53:50;;;;;;;5.63;1.23;;;;;;;9.53;74.01;98872.38;5040911;28;20967;-54
2023/01/12 10:56:26;;;;;;;1.90;0.70;;;;;;;9.54;73.02;98860.94;5038835;28;20572;-53
2023/01/12 10:58:59;;;;;;;2.60;0.70;;;;;;;9.52;73.46;98851.66;5043186;28;20222;-53
2023/01/12 11:01:26;;;;;;;5.43;0.60;;;;;;;9.65;73.48;98846.13;5040198;28;20244;-54
2023/01/12 11:04:04;;;;;;;3.83;0.90;;;;;;;9.68;72.28;98832.81;5042863;28;20285;-55
2023/01/12 11:06:31;;;;;;;4.30;0.70;;;;;;;9.85;71.40;98852.16;5038899;28;20235;-55
2023/01/12 11:08:59;;;;;;;1.77;0.60;;;;;;;9.92;72.85;98848.03;5043439;28;20248;-55
2023/01/12 11:11:31;;;;;;;3.57;0.73;;;;;;;9.74;72.04;98840.09;5044159;28;20235;-55
2023/01/12 11:14:02;;;;;;;4.00;0.70;;;;;;;9.69;72.56;98847.50;5045887;28;20231;-53
2023/01/12 11:16:32;;;;;;;4.37;2.70;;;;;;;9.84;72.70;98843.50;5043604;28;20239;-54
2023/01/12 11:19:12;;;;;;;1.73;0.57;;;;;;;9.96;70.65;98832.91;5045939;28;20299;-54
2023/01/12 11:21:43;;;;;;;4.67;0.73;;;;;;;9.90;72.53;98818.66;5044530;28;20246;-55
2023/01/12 11:24:16;;;;;;;3.97;1.50;;;;;;;9.71;72.65;98845.56;5043995;28;20289;-53
2023/01/12 11:26:48;;;;;;;1.77;0.57;;;;;;;9.81;73.10;98837.75;5046522;28;20314;-53
2023/01/12 11:29:32;;;;;;;3.80;0.70;;;;;;;9.84;72.72;98820.03;5043612;28;20456;-53
2023/01/12 11:32:03;;;;;;;3.73;0.60;;;;;;;9.90;72.13;98826.47;5045295;28;20820;-53
2023/01/12 11:34:37;;;;;;;9.00;5.90;;;;;;;10.00;71.73;98842.09;5042397;28;20307;-55
2023/01/12 11:37:11;;;;;;;2.63;1.30;;;;;;;9.84;72.48;98838.28;5045851;28;20249;-54
2023/01/12 11:39:39;;;;;;;3.53;0.80;;;;;;;9.96;72.73;98838.97;5043641;28;20241;-55
2023/01/12 11:45:05;;;;;;;3.40;1.33;;;;;;;10.01;73.02;98834.13;5045562;28;20695;-55
2023/01/12 11:47:35;;;;;;;2.03;0.67;;;;;;;9.89;71.66;98817.81;5043472;28;20227;-56
2023/01/12 11:50:07;;;;;;;3.90;1.40;;;;;;;10.00;73.17;98818.63;5045791;28;20227;-55
2023/01/12 11:52:34;;;;;;;1.10;0.30;;;;;;;9.89;72.80;98803.97;5041986;28;20698;-55
2023/01/12 11:55:02;;;;;;;3.67;0.60;;;;;;;10.00;71.70;98823.84;5045694;28;20292;-55
2023/01/12 11:57:42;;;;;;;1.90;1.00;;;;;;;9.90;72.56;98823.88;5041418;28;20246;-53
2023/01/12 12:00:27;;;;;;;1.87;1.00;;;;;;;9.81;73.45;98833.34;5042675;28;20583;-53
2023/01/12 12:03:05;;;;;;;3.07;0.73;;;;;;;9.75;74.97;98826.09;5045053;28;20234;-53
2023/01/12 12:05:42;;;;;;;3.20;1.27;;;;;;;9.82;74.94;98839.41;5043411;28;20317;-54
2023/01/12 12:08:24;;;;;;;2.20;0.60;;;;;;;9.78;74.18;98811.97;5042080;28;20302;-53
2023/01/12 12:10:56;;;;;;;2.47;0.40;;;;;;;9.63;75.21;98798.53;5045318;28;20339;-53
2023/01/12 12:13:30;;;;;;;2.10;0.50;;;;;;;9.63;76.83;98795.94;5042497;28;20246;-53
2023/01/12 12:16:13;;;;;;;2.53;0.57;;;;;;;9.65;76.41;98802.66;5045023;28;20241;-54
2023/01/12 12:18:52;;;;;;;0.73;0.40;;;;;;;9.64;76.14;98779.31;5041432;28;20227;-53
2023/01/12 12:21:41;;;;;;;5.57;0.50;;;;;;;9.65;77.97;98786.19;5042591;28;20223;-53
2023/01/12 12:24:18;;;;;;;2.63;0.50;;;;;;;9.69;76.67;98797.97;5042567;28;20284;-55
2023/01/12 12:26:53;;;;;;;2.83;0.47;;;;;;;9.86;74.92;98784.22;5044452;28;20228;-53
2023/01/12 12:29:33;;;;;;;2.60;0.40;;;;;;;9.58;77.48;98781.53;5042886;28;20228;-53
2023/01/12 12:32:19;;;;;;;3.40;0.50;;;;;;;9.58;78.48;98784.13;5042608;28;20327;-53